Time;durP1;ratioP1;P1;durP2;ratioP2;P2;SDS_P1;SDS_P2;PMS_P1;PMS_P2;Temp;Humidity;BMP_temperature;BMP_pressure;BME280_temperature;BME280_humidity;BME280_pressure;Samples;Min_cycle;Max_cycle;Signal;HPM_P1;HPM_P2
2024/02/18 00:01:32;;;;;;;3.20;2.30;;;18.10;62.80;;;;;;5110888;28;20185;-58
2024/02/18 00:03:58;;;;;;;2.95;2.20;;;18.10;62.80;;;;;;5113401;28;20176;-58
2024/02/18 00:06:24;;;;;;;2.47;1.92;;;18.10;62.80;;;;;;5113281;28;20745;-58
2024/02/18 00:08:49;;;;;;;2.40;2.20;;;18.10;62.80;;;;;;5113363;28;20171;-59
2024/02/18 00:11:16;;;;;;;2.20;2.00;;;18.10;62.90;;;;;;5113684;28;20271;-58
2024/02/18 00:13:41;;;;;;;2.17;1.98;;;18.10;62.90;;;;;;5112683;28;20544;-59
2024/02/18 00:16:07;;;;;;;1.70;1.60;;;18.00;62.80;;;;;;5114233;28;20177;-59
2024/02/18 00:18:32;;;;;;;2.70;1.90;;;18.00;62.80;;;;;;5113888;28;20165;-58
2024/02/18 00:20:58;;;;;;;2.10;1.90;;;18.00;62.80;;;;;;5113142;28;20177;-59
2024/02/18 00:23:23;;;;;;;2.22;2.03;;;18.00;62.80;;;;;;5113159;28;20556;-58
2024/02/18 00:25:49;;;;;;;3.22;2.42;;;18.00;62.80;;;;;;5113974;28;20704;-59
2024/02/18 00:28:14;;;;;;;2.50;2.08;;;18.00;62.80;;;;;;5113302;28;20173;-58
2024/02/18 00:30:40;;;;;;;2.60;2.22;;;18.00;62.80;;;;;;5113214;28;20293;-58
2024/02/18 00:33:05;;;;;;;1.98;1.60;;;17.90;62.70;;;;;;5113732;28;20279;-58
2024/02/18 00:35:31;;;;;;;3.00;1.95;;;17.90;62.70;;;;;;5112898;28;20173;-58
2024/02/18 00:37:56;;;;;;;2.40;2.20;;;17.90;62.70;;;;;;5113602;28;20169;-58
2024/02/18 00:40:22;;;;;;;3.28;2.08;;;17.90;62.80;;;;;;5113339;28;20254;-58
2024/02/18 00:42:47;;;;;;;3.03;1.98;;;17.90;62.70;;;;;;5112962;28;20169;-58
2024/02/18 00:45:14;;;;;;;3.08;2.15;;;17.90;62.70;;;;;;5113546;28;20184;-58
2024/02/18 00:47:40;;;;;;;2.22;1.95;;;17.90;62.70;;;;;;5112803;28;20204;-58
2024/02/18 00:50:06;;;;;;;2.67;2.00;;;17.90;62.70;;;;;;5112173;28;20211;-58
2024/02/18 00:52:32;;;;;;;2.28;2.08;;;17.80;62.70;;;;;;5113145;28;20218;-58
2024/02/18 00:54:57;;;;;;;2.50;1.80;;;17.80;62.70;;;;;;5113298;28;20169;-58
2024/02/18 00:57:23;;;;;;;2.35;2.03;;;17.80;62.70;;;;;;5111942;28;20181;-58
2024/02/18 00:59:48;;;;;;;2.17;1.80;;;17.80;62.80;;;;;;5112665;28;20208;-58
2024/02/18 01:02:14;;;;;;;1.90;1.48;;;17.80;62.70;;;;;;5113179;28;20177;-58
2024/02/18 01:04:39;;;;;;;2.33;2.05;;;17.80;62.70;;;;;;5112306;28;20272;-58
2024/02/18 01:07:08;;;;;;;3.72;2.25;;;17.80;62.70;;;;;;5112944;28;20260;-58
2024/02/18 01:09:33;;;;;;;2.55;2.10;;;17.80;62.70;;;;;;5111651;28;20640;-58
2024/02/18 01:11:59;;;;;;;2.55;2.35;;;17.70;62.70;;;;;;5113038;28;20209;-59
2024/02/18 01:14:24;;;;;;;2.25;2.03;;;17.70;62.70;;;;;;5112925;28;20272;-58
2024/02/18 01:16:50;;;;;;;2.03;1.90;;;17.70;62.70;;;;;;5112336;28;20889;-58
2024/02/18 01:19:16;;;;;;;3.13;1.90;;;17.70;62.70;;;;;;5112698;28;20226;-58
2024/02/18 01:21:42;;;;;;;1.80;1.65;;;17.70;62.70;;;;;;5112874;28;20260;-58
2024/02/18 01:24:07;;;;;;;2.10;1.83;;;17.70;62.70;;;;;;5112051;28;20188;-58
2024/02/18 01:26:33;;;;;;;2.72;1.88;;;17.70;62.70;;;;;;5112644;28;20214;-58
2024/02/18 01:28:58;;;;;;;4.15;2.63;;;17.70;62.70;;;;;;5112549;28;20169;-58
2024/02/18 01:31:24;;;;;;;2.10;1.90;;;17.60;62.60;;;;;;5111790;28;20238;-58
2024/02/18 01:33:49;;;;;;;2.55;1.75;;;17.70;62.70;;;;;;5112892;28;20169;-57
2024/02/18 01:36:15;;;;;;;4.03;2.03;;;17.60;62.50;;;;;;5112701;28;20176;-58
2024/02/18 01:38:40;;;;;;;2.35;2.15;;;17.60;62.50;;;;;;5111524;28;20169;-58
2024/02/18 01:41:06;;;;;;;2.38;1.70;;;17.60;62.50;;;;;;5112331;28;20710;-58
2024/02/18 01:43:32;;;;;;;2.90;2.30;;;17.60;62.60;;;;;;5111986;28;20179;-58
2024/02/18 01:45:57;;;;;;;2.15;1.92;;;17.60;62.50;;;;;;5111523;28;20181;-58
2024/02/18 01:48:23;;;;;;;1.70;1.58;;;17.60;62.50;;;;;;5111243;28;20200;-58
2024/02/18 01:50:48;;;;;;;2.47;1.77;;;17.60;62.50;;;;;;5111781;28;20205;-58
2024/02/18 01:53:15;;;;;;;2.25;1.73;;;17.60;62.50;;;;;;5109399;28;20226;-58
2024/02/18 01:55:41;;;;;;;3.78;1.90;;;17.60;62.50;;;;;;5111014;28;20285;-58
2024/02/18 01:58:06;;;;;;;2.55;1.92;;;17.50;62.40;;;;;;5112269;28;20639;-58
2024/02/18 02:00:32;;;;;;;2.65;2.10;;;17.50;62.50;;;;;;5111839;28;20239;-57
2024/02/18 02:02:57;;;;;;;1.92;1.80;;;17.50;62.40;;;;;;5117615;28;20268;-58
2024/02/18 02:05:23;;;;;;;2.88;1.90;;;17.50;62.40;;;;;;5118555;28;20181;-58
2024/02/18 02:07:51;;;;;;;3.42;2.10;;;17.50;62.40;;;;;;5116673;28;20616;-58
2024/02/18 02:10:17;;;;;;;2.63;1.73;;;17.50;62.40;;;;;;5118892;28;20200;-58
2024/02/18 02:12:43;;;;;;;2.65;1.63;;;17.50;62.40;;;;;;5117698;28;20266;-59
2024/02/18 02:15:11;;;;;;;3.10;2.03;;;17.50;62.40;;;;;;5118505;28;20286;-58
2024/02/18 02:17:37;;;;;;;2.42;1.73;;;17.50;62.40;;;;;;5118869;28;20693;-58
2024/02/18 02:20:05;;;;;;;3.22;1.83;;;17.50;62.30;;;;;;5117842;27;20213;-58
2024/02/18 02:22:30;;;;;;;2.10;1.90;;;17.50;62.30;;;;;;5118898;28;20181;-59
2024/02/18 02:24:57;;;;;;;2.70;2.00;;;17.40;62.30;;;;;;5119202;28;20165;-58
2024/02/18 02:27:25;;;;;;;2.42;1.60;;;17.40;62.20;;;;;;5118143;28;20632;-58
2024/02/18 02:29:51;;;;;;;1.90;1.77;;;17.40;62.20;;;;;;5119035;28;20180;-58
2024/02/18 02:32:16;;;;;;;3.20;1.77;;;17.40;62.10;;;;;;5116972;28;20180;-58
2024/02/18 02:34:42;;;;;;;2.13;1.85;;;17.40;62.20;;;;;;5117870;28;20180;-58
2024/02/18 02:37:08;;;;;;;2.97;1.90;;;17.40;62.20;;;;;;5118789;28;20631;-58
2024/02/18 02:39:33;;;;;;;1.98;1.75;;;17.40;62.20;;;;;;5118010;28;20295;-58
2024/02/18 02:42:00;;;;;;;1.95;1.60;;;17.40;62.20;;;;;;5118030;27;20204;-58
2024/02/18 02:44:25;;;;;;;3.92;2.35;;;17.40;62.10;;;;;;5118499;28;20246;-59
2024/02/18 02:46:51;;;;;;;2.83;2.08;;;17.40;62.10;;;;;;5118489;28;20647;-58
2024/02/18 02:49:16;;;;;;;1.98;1.77;;;17.40;62.20;;;;;;5117433;28;20553;-58
2024/02/18 02:51:43;;;;;;;2.45;1.92;;;17.40;62.10;;;;;;5118581;28;20167;-59
2024/02/18 02:54:09;;;;;;;3.17;2.13;;;17.30;62.00;;;;;;5118656;27;20275;-58
2024/02/18 02:56:34;;;;;;;1.80;1.70;;;17.30;62.00;;;;;;5117640;28;20429;-59
2024/02/18 02:59:00;;;;;;;3.70;1.83;;;17.30;62.10;;;;;;5118231;28;20295;-58
2024/02/18 03:01:25;;;;;;;3.58;1.90;;;17.30;62.00;;;;;;5118329;28;20628;-58
2024/02/18 03:03:51;;;;;;;2.85;2.00;;;17.30;62.00;;;;;;5117770;28;20652;-58
2024/02/18 03:06:16;;;;;;;2.80;1.83;;;17.30;62.00;;;;;;5118270;28;20258;-58
2024/02/18 03:08:45;;;;;;;1.73;1.63;;;17.30;62.10;;;;;;5116883;28;20297;-58
2024/02/18 03:11:11;;;;;;;2.03;1.83;;;17.30;61.90;;;;;;5117132;28;20177;-58
2024/02/18 03:13:37;;;;;;;2.17;1.60;;;17.30;62.00;;;;;;5114186;28;20180;-58
2024/02/18 03:16:03;;;;;;;3.08;2.00;;;17.30;61.90;;;;;;5114744;28;20173;-58
2024/02/18 03:18:29;;;;;;;3.28;1.98;;;17.30;61.90;;;;;;5113205;28;20540;-58
2024/02/18 03:20:54;;;;;;;3.15;1.92;;;17.30;61.80;;;;;;5114277;28;20263;-58
2024/02/18 03:23:20;;;;;;;3.15;1.92;;;17.30;61.90;;;;;;5113398;28;20531;-58
2024/02/18 03:25:45;;;;;;;2.35;1.98;;;17.30;61.90;;;;;;5114255;28;20173;-58
2024/02/18 03:28:11;;;;;;;2.45;1.75;;;17.30;61.80;;;;;;5114086;28;20181;-58
2024/02/18 03:30:37;;;;;;;2.75;1.95;;;17.30;61.90;;;;;;5113379;28;20703;-58
2024/02/18 03:33:02;;;;;;;2.25;1.85;;;17.30;61.90;;;;;;5114212;28;20267;-58
2024/02/18 03:35:28;;;;;;;4.30;2.00;;;17.20;61.90;;;;;;5114732;28;20185;-58
2024/02/18 03:37:56;;;;;;;2.70;1.95;;;17.20;61.80;;;;;;5113903;28;20172;-58
2024/02/18 03:40:25;;;;;;;2.17;1.98;;;17.20;61.80;;;;;;5113984;28;20631;-58
2024/02/18 03:42:51;;;;;;;2.58;1.90;;;17.20;61.80;;;;;;5115083;28;20534;-58
2024/02/18 03:45:16;;;;;;;1.80;1.70;;;17.20;61.80;;;;;;5113889;28;20181;-58
2024/02/18 03:47:42;;;;;;;3.00;2.00;;;17.20;61.70;;;;;;5114840;28;20175;-58
2024/02/18 03:50:10;;;;;;;1.90;1.70;;;17.20;61.70;;;;;;5114665;28;20655;-59
2024/02/18 03:52:36;;;;;;;2.95;1.90;;;17.20;61.80;;;;;;5113350;28;20183;-58
2024/02/18 03:55:01;;;;;;;2.08;1.75;;;17.20;61.80;;;;;;5114582;28;20640;-59
2024/02/18 03:57:27;;;;;;;3.13;2.08;;;17.20;61.80;;;;;;5114273;28;20176;-58
2024/02/18 03:59:52;;;;;;;3.25;1.90;;;17.20;61.70;;;;;;5113417;28;20293;-57
2024/02/18 04:02:18;;;;;;;3.25;1.67;;;17.20;61.70;;;;;;5113978;28;20306;-58
2024/02/18 04:04:43;;;;;;;2.13;1.73;;;17.20;61.80;;;;;;5114395;28;20260;-58
2024/02/18 04:07:09;;;;;;;1.60;1.50;;;17.20;61.70;;;;;;5113659;28;20268;-58
2024/02/18 04:09:34;;;;;;;2.58;1.80;;;17.20;61.70;;;;;;5114288;28;20283;-59
2024/02/18 04:12:00;;;;;;;3.10;1.73;;;17.20;61.70;;;;;;5114071;28;20216;-58
2024/02/18 04:14:25;;;;;;;2.90;2.10;;;17.20;61.70;;;;;;5113458;28;20198;-59
2024/02/18 04:16:51;;;;;;;2.03;1.73;;;17.20;61.60;;;;;;5114387;28;20895;-58
2024/02/18 04:19:16;;;;;;;1.90;1.70;;;17.10;61.60;;;;;;5113873;28;20216;-58
2024/02/18 04:21:42;;;;;;;1.98;1.77;;;17.10;61.70;;;;;;5112931;28;20173;-58
2024/02/18 04:24:08;;;;;;;3.17;2.00;;;17.10;61.60;;;;;;5113375;28;20187;-58
2024/02/18 04:26:34;;;;;;;1.90;1.80;;;17.10;61.60;;;;;;5112841;28;20173;-58
2024/02/18 04:28:59;;;;;;;3.08;2.00;;;17.10;61.60;;;;;;5114098;28;20218;-58
2024/02/18 04:31:25;;;;;;;2.72;1.85;;;17.10;61.50;;;;;;5113133;28;20222;-58
2024/02/18 04:33:50;;;;;;;2.40;1.95;;;17.10;61.40;;;;;;5113106;28;20165;-58
2024/02/18 04:36:16;;;;;;;2.67;1.92;;;17.10;61.40;;;;;;5112790;28;20222;-58
2024/02/18 04:38:42;;;;;;;2.58;1.83;;;17.10;61.40;;;;;;5113161;28;20180;-58
2024/02/18 04:41:07;;;;;;;2.97;1.92;;;17.10;61.40;;;;;;5111039;28;20173;-58
2024/02/18 04:43:33;;;;;;;2.10;1.67;;;17.10;61.50;;;;;;5111320;28;20162;-58
2024/02/18 04:45:58;;;;;;;2.55;2.00;;;17.10;61.40;;;;;;5113125;28;20180;-58
2024/02/18 04:48:24;;;;;;;3.08;2.35;;;17.10;61.40;;;;;;5111652;28;20177;-58
2024/02/18 04:50:50;;;;;;;2.50;2.03;;;17.10;61.40;;;;;;5113039;28;20176;-58
2024/02/18 04:53:15;;;;;;;2.75;1.98;;;17.00;61.40;;;;;;5113243;28;20223;-59
2024/02/18 04:55:41;;;;;;;3.88;1.98;;;17.10;61.40;;;;;;5112402;28;20272;-58
2024/02/18 04:58:07;;;;;;;2.95;1.88;;;17.00;61.30;;;;;;5112973;28;20201;-58
2024/02/18 05:00:32;;;;;;;3.05;2.38;;;17.00;61.30;;;;;;5112912;28;20377;-59
2024/02/18 05:02:58;;;;;;;2.42;1.90;;;17.00;61.40;;;;;;5112262;28;20184;-58
2024/02/18 05:05:23;;;;;;;2.22;1.90;;;17.10;61.40;;;;;;5112907;28;20180;-58
2024/02/18 05:07:49;;;;;;;2.45;2.00;;;17.00;61.30;;;;;;5112621;28;20177;-58
2024/02/18 05:10:14;;;;;;;2.55;2.00;;;17.00;61.30;;;;;;5112196;28;20176;-58
2024/02/18 05:12:40;;;;;;;2.42;1.83;;;17.00;61.30;;;;;;5112286;28;20523;-58
2024/02/18 05:15:06;;;;;;;2.10;1.90;;;17.00;61.40;;;;;;5112938;28;20172;-58
2024/02/18 05:17:31;;;;;;;2.28;1.90;;;17.00;61.30;;;;;;5111999;28;20165;-59
2024/02/18 05:19:57;;;;;;;2.40;2.03;;;17.00;61.40;;;;;;5112622;28;20197;-58
2024/02/18 05:22:24;;;;;;;2.70;1.83;;;17.00;61.40;;;;;;5112039;28;20177;-58
2024/02/18 05:24:49;;;;;;;2.40;2.20;;;17.00;61.40;;;;;;5112311;28;20204;-58
2024/02/18 05:27:15;;;;;;;2.42;1.65;;;17.00;61.30;;;;;;5112577;28;20253;-58
2024/02/18 05:29:41;;;;;;;2.17;1.58;;;17.00;61.30;;;;;;5112395;28;20173;-58
2024/02/18 05:32:06;;;;;;;3.00;1.98;;;17.00;61.30;;;;;;5111405;28;20792;-58
2024/02/18 05:34:32;;;;;;;2.67;1.50;;;16.90;61.30;;;;;;5111692;28;20169;-58
2024/02/18 05:36:57;;;;;;;2.55;1.65;;;17.00;61.30;;;;;;5111832;28;20764;-58
2024/02/18 05:39:23;;;;;;;3.60;2.15;;;16.90;61.20;;;;;;5112497;28;20602;-60
2024/02/18 05:41:48;;;;;;;2.60;2.15;;;16.90;61.20;;;;;;5112277;28;20651;-58
2024/02/18 05:44:14;;;;;;;3.17;1.95;;;16.90;61.30;;;;;;5111884;28;20620;-61
2024/02/18 05:46:39;;;;;;;1.98;1.88;;;16.90;61.20;;;;;;5111887;28;20172;-58
2024/02/18 05:49:05;;;;;;;3.17;2.20;;;16.90;61.30;;;;;;5112427;28;20173;-59
2024/02/18 05:51:31;;;;;;;3.00;1.92;;;16.90;61.30;;;;;;5111060;28;20186;-58
2024/02/18 05:53:57;;;;;;;4.20;1.60;;;16.90;61.40;;;;;;5112529;28;20173;-58
2024/02/18 05:56:23;;;;;;;2.13;1.92;;;16.90;61.30;;;;;;5111943;28;20270;-58
2024/02/18 05:58:48;;;;;;;2.60;2.00;;;16.90;61.30;;;;;;5111781;28;20747;-59
2024/02/18 06:01:14;;;;;;;2.63;1.75;;;16.90;61.30;;;;;;5111988;28;20601;-58
2024/02/18 06:03:40;;;;;;;1.98;1.67;;;16.90;61.20;;;;;;5111678;28;20178;-58
2024/02/18 06:06:05;;;;;;;1.88;1.70;;;16.90;61.20;;;;;;5110054;28;20226;-58
2024/02/18 06:08:31;;;;;;;1.75;1.50;;;16.90;61.20;;;;;;5111203;28;20169;-58
2024/02/18 06:10:56;;;;;;;2.10;1.90;;;16.80;61.10;;;;;;5112446;28;20268;-58
2024/02/18 06:13:22;;;;;;;2.38;1.85;;;16.90;61.20;;;;;;5111129;28;20318;-58
2024/02/18 06:15:48;;;;;;;2.72;1.95;;;16.90;61.30;;;;;;5111441;28;20169;-58
2024/02/18 06:18:13;;;;;;;2.40;1.70;;;16.80;61.20;;;;;;5111845;28;20189;-59
2024/02/18 06:20:40;;;;;;;2.35;1.73;;;16.80;61.20;;;;;;5111111;28;20215;-58
2024/02/18 06:23:05;;;;;;;3.50;2.00;;;16.80;61.20;;;;;;5111967;28;20173;-58
2024/02/18 06:25:36;;;;;;;3.60;1.77;;;16.80;61.20;;;;;;5111848;28;20532;-58
2024/02/18 06:28:07;;;;;;;3.80;2.00;;;16.80;61.10;;;;;;5111540;28;20588;-58
2024/02/18 06:30:35;;;;;;;2.58;1.60;;;16.80;61.20;;;;;;5111570;28;20196;-58
2024/02/18 06:33:00;;;;;;;3.00;2.00;;;16.80;61.20;;;;;;5111083;28;20199;-58
2024/02/18 06:35:27;;;;;;;2.45;2.00;;;16.80;61.20;;;;;;5111281;28;20632;-57
2024/02/18 06:37:52;;;;;;;2.25;1.75;;;16.80;61.10;;;;;;5110887;28;20712;-58
2024/02/18 06:40:18;;;;;;;3.22;2.00;;;16.80;61.10;;;;;;5110832;28;20205;-58
2024/02/18 06:42:43;;;;;;;4.00;2.10;;;16.80;61.10;;;;;;5111878;28;20181;-58
2024/02/18 06:45:09;;;;;;;4.07;2.03;;;16.80;61.10;;;;;;5111630;28;20173;-58
2024/02/18 06:47:37;;;;;;;3.38;2.05;;;16.80;61.20;;;;;;5110461;28;20165;-58
2024/02/18 06:50:03;;;;;;;3.20;2.03;;;16.80;61.10;;;;;;5115697;28;20551;-58
2024/02/18 06:52:29;;;;;;;3.22;2.17;;;16.80;61.10;;;;;;5114756;28;20169;-58
2024/02/18 06:54:55;;;;;;;1.80;1.70;;;16.80;61.10;;;;;;5115072;28;20181;-58
2024/02/18 06:57:20;;;;;;;3.20;1.90;;;16.80;61.20;;;;;;5115341;28;20220;-58
2024/02/18 06:59:46;;;;;;;2.08;1.63;;;16.80;61.10;;;;;;5115504;28;20208;-58
2024/02/18 07:02:12;;;;;;;1.90;1.50;;;16.80;61.10;;;;;;5114880;28;20173;-58
2024/02/18 07:04:38;;;;;;;1.90;1.63;;;16.70;61.10;;;;;;5114920;28;20576;-58
2024/02/18 07:07:03;;;;;;;2.10;1.85;;;16.80;61.10;;;;;;5115330;28;20684;-58
2024/02/18 07:09:29;;;;;;;2.08;1.88;;;16.70;61.10;;;;;;5114652;28;20670;-58
2024/02/18 07:11:54;;;;;;;2.40;1.60;;;16.70;61.10;;;;;;5115380;28;20180;-59
2024/02/18 07:14:20;;;;;;;3.05;1.92;;;16.70;61.10;;;;;;5114524;28;20659;-58
2024/02/18 07:16:45;;;;;;;2.08;1.60;;;16.70;61.10;;;;;;5114572;28;20666;-58
2024/02/18 07:19:11;;;;;;;3.33;2.17;;;16.70;61.10;;;;;;5115360;28;20205;-58
2024/02/18 07:21:36;;;;;;;2.92;1.95;;;16.70;61.10;;;;;;5115084;28;20264;-58
2024/02/18 07:24:02;;;;;;;3.17;1.85;;;16.70;61.10;;;;;;5114181;28;20253;-58
2024/02/18 07:26:27;;;;;;;4.10;1.80;;;16.70;61.10;;;;;;5114075;28;20241;-58
2024/02/18 07:28:54;;;;;;;1.70;1.60;;;16.70;61.10;;;;;;5114345;28;20224;-58
2024/02/18 07:31:20;;;;;;;3.35;1.70;;;16.70;61.10;;;;;;5113385;28;20227;-58
2024/02/18 07:33:45;;;;;;;2.25;1.80;;;16.70;61.10;;;;;;5113972;28;20506;-58
2024/02/18 07:36:11;;;;;;;2.53;1.60;;;16.70;61.10;;;;;;5113761;28;20566;-57
2024/02/18 07:38:36;;;;;;;4.20;1.88;;;16.70;61.10;;;;;;5112297;28;20187;-58
2024/02/18 07:41:03;;;;;;;2.42;1.58;;;16.70;61.10;;;;;;5114529;28;20194;-58
2024/02/18 07:43:28;;;;;;;3.05;1.70;;;16.70;61.00;;;;;;5112845;28;20188;-59
2024/02/18 07:45:54;;;;;;;3.38;1.80;;;16.70;61.10;;;;;;5114766;28;20165;-58
2024/02/18 07:48:19;;;;;;;2.47;1.95;;;16.70;61.10;;;;;;5114552;28;20169;-59
2024/02/18 07:50:45;;;;;;;1.88;1.67;;;16.70;61.10;;;;;;5113954;28;20989;-59
2024/02/18 07:53:10;;;;;;;2.67;1.95;;;16.60;61.00;;;;;;5114221;28;20173;-58
2024/02/18 07:55:37;;;;;;;2.15;1.95;;;16.60;61.00;;;;;;5113593;28;20709;-58
2024/02/18 07:58:02;;;;;;;2.20;1.55;;;16.60;61.00;;;;;;5114084;28;20194;-58
2024/02/18 08:00:28;;;;;;;4.43;2.08;;;16.60;61.00;;;;;;5113248;28;20237;-59
2024/02/18 08:02:54;;;;;;;2.92;1.88;;;16.60;61.00;;;;;;5114205;28;20181;-58
2024/02/18 08:05:19;;;;;;;2.40;1.50;;;16.60;61.00;;;;;;5113652;28;20196;-58
2024/02/18 08:07:45;;;;;;;2.78;1.70;;;16.60;61.10;;;;;;5113956;28;20177;-59
2024/02/18 08:10:10;;;;;;;3.78;2.03;;;16.60;61.00;;;;;;5113988;28;20702;-58
2024/02/18 08:12:36;;;;;;;2.15;1.80;;;16.60;61.00;;;;;;5112600;28;21028;-58
2024/02/18 08:15:02;;;;;;;2.75;1.80;;;16.60;61.10;;;;;;5114127;28;20651;-58
2024/02/18 08:17:27;;;;;;;2.97;1.65;;;16.60;61.00;;;;;;5113847;28;20256;-58
2024/02/18 08:19:53;;;;;;;1.70;1.60;;;16.60;61.00;;;;;;5112677;28;20215;-58
2024/02/18 08:22:18;;;;;;;2.35;1.80;;;16.60;61.00;;;;;;5112883;28;20185;-58
2024/02/18 08:24:44;;;;;;;2.45;1.95;;;16.60;61.00;;;;;;5113903;28;20183;-58
2024/02/18 08:27:10;;;;;;;2.65;1.77;;;16.60;61.00;;;;;;5112996;28;20177;-58
2024/02/18 08:29:37;;;;;;;4.13;1.95;;;16.60;61.10;;;;;;5113381;28;20173;-58
2024/02/18 08:32:03;;;;;;;3.28;2.05;;;16.60;61.00;;;;;;5113921;28;20212;-59
2024/02/18 08:34:29;;;;;;;1.92;1.50;;;16.60;61.00;;;;;;5113130;28;20655;-58
2024/02/18 08:36:56;;;;;;;4.55;1.67;;;16.60;61.10;;;;;;5113407;28;20220;-58
2024/02/18 08:39:21;;;;;;;2.92;1.65;;;16.60;61.00;;;;;;5113156;28;20242;-59
2024/02/18 08:41:47;;;;;;;3.75;1.98;;;16.60;61.10;;;;;;5113031;28;20173;-59
2024/02/18 08:44:14;;;;;;;3.08;1.73;;;16.60;61.40;;;;;;5113767;28;20169;-58
2024/02/18 08:46:41;;;;;;;2.28;1.55;;;16.60;61.40;;;;;;5113182;28;20181;-59
2024/02/18 08:49:07;;;;;;;3.08;2.00;;;16.70;61.40;;;;;;5113249;28;20227;-58
2024/02/18 08:51:32;;;;;;;3.95;1.77;;;16.70;61.70;;;;;;5113318;28;20165;-59
2024/02/18 08:53:58;;;;;;;1.85;1.70;;;16.70;61.90;;;;;;5112879;28;20539;-59
2024/02/18 08:56:23;;;;;;;1.63;1.50;;;16.70;62.20;;;;;;5113049;28;20220;-59
2024/02/18 08:58:49;;;;;;;1.98;1.67;;;16.70;62.30;;;;;;5112923;28;20583;-59
2024/02/18 09:01:18;;;;;;;3.92;1.67;;;16.70;62.60;;;;;;5112943;28;20647;-58
2024/02/18 09:03:43;;;;;;;2.03;1.80;;;16.70;62.70;;;;;;5113363;28;20164;-58
2024/02/18 09:06:09;;;;;;;3.80;1.70;;;16.60;63.50;;;;;;5112440;28;20700;-58
2024/02/18 09:08:35;;;;;;;2.38;1.75;;;16.60;62.90;;;;;;5111024;28;20207;-59
2024/02/18 09:11:01;;;;;;;2.42;1.60;;;16.70;63.00;;;;;;5112611;28;20188;-58
2024/02/18 09:13:26;;;;;;;3.10;1.67;;;16.70;63.10;;;;;;5112520;28;20170;-59
2024/02/18 09:15:52;;;;;;;1.95;1.30;;;16.60;63.10;;;;;;5112425;28;20222;-59
2024/02/18 09:18:18;;;;;;;1.90;1.35;;;16.70;63.30;;;;;;5113042;28;20176;-59
2024/02/18 09:20:43;;;;;;;3.83;1.98;;;16.60;63.20;;;;;;5112578;28;20217;-59
2024/02/18 09:23:09;;;;;;;2.55;1.48;;;16.60;63.10;;;;;;5112012;28;20646;-59
2024/02/18 09:25:35;;;;;;;1.63;1.50;;;16.60;63.20;;;;;;5112095;28;20195;-59
2024/02/18 09:28:00;;;;;;;3.50;1.50;;;16.60;63.20;;;;;;5112591;28;20184;-59
2024/02/18 09:30:26;;;;;;;2.15;1.55;;;16.60;63.30;;;;;;5111673;28;20172;-58
2024/02/18 09:32:51;;;;;;;1.88;1.73;;;16.60;63.20;;;;;;5112671;28;20169;-59
2024/02/18 09:35:17;;;;;;;2.35;1.50;;;16.60;63.30;;;;;;5111898;28;20173;-59
2024/02/18 09:37:43;;;;;;;3.13;1.50;;;16.60;63.20;;;;;;5111892;28;20181;-59
2024/02/18 09:40:09;;;;;;;2.38;1.45;;;16.60;63.20;;;;;;5112634;28;20209;-58
2024/02/18 09:42:42;;;;;;;1.85;1.60;;;16.60;63.20;;;;;;5112302;28;20401;-59
2024/02/18 09:45:11;;;;;;;2.35;1.40;;;16.60;63.30;;;;;;5111839;28;20173;-58
2024/02/18 09:47:37;;;;;;;2.22;1.40;;;16.60;63.30;;;;;;5112340;28;20188;-59
2024/02/18 09:50:03;;;;;;;1.90;1.65;;;16.60;63.30;;;;;;5110468;28;20644;-59
2024/02/18 09:52:28;;;;;;;2.33;1.30;;;16.60;63.30;;;;;;5093591;28;20169;-60
2024/02/18 09:54:54;;;;;;;3.65;1.95;;;16.60;63.30;;;;;;5111338;28;20181;-59
2024/02/18 09:57:19;;;;;;;3.75;1.70;;;16.60;63.30;;;;;;5111163;28;20326;-59
2024/02/18 09:59:45;;;;;;;2.10;1.35;;;16.60;63.60;;;;;;5110928;28;20223;-59
2024/02/18 10:02:13;;;;;;;2.78;1.52;;;16.60;63.30;;;;;;5112320;28;20173;-59
2024/02/18 10:04:39;;;;;;;3.50;1.50;;;16.50;63.30;;;;;;5093368;28;20208;-59
2024/02/18 10:07:04;;;;;;;2.17;1.80;;;16.50;63.30;;;;;;5112479;28;20255;-59
2024/02/18 10:09:33;;;;;;;3.88;1.33;;;16.60;63.30;;;;;;5112085;28;20538;-59
2024/02/18 10:11:58;;;;;;;1.70;1.60;;;16.50;63.30;;;;;;5111164;28;20185;-59
2024/02/18 10:14:25;;;;;;;2.05;1.48;;;16.50;63.30;;;;;;5111096;28;20176;-59
2024/02/18 10:16:54;;;;;;;1.90;1.35;;;16.50;63.20;;;;;;5111940;28;20553;-59
2024/02/18 10:19:24;;;;;;;2.80;1.67;;;16.50;63.20;;;;;;5111464;28;20346;-59
2024/02/18 10:21:50;;;;;;;4.15;1.60;;;16.60;63.20;;;;;;5112558;28;20201;-59
2024/02/18 10:24:19;;;;;;;2.63;1.50;;;16.50;64.20;;;;;;5116393;27;20202;-59
2024/02/18 10:26:45;;;;;;;2.05;1.52;;;16.50;63.20;;;;;;5114303;28;20179;-59
2024/02/18 10:29:12;;;;;;;2.60;1.42;;;16.50;63.20;;;;;;5116448;28;20598;-59
2024/02/18 10:31:38;;;;;;;2.15;1.48;;;16.50;63.20;;;;;;5114572;28;20195;-59
2024/02/18 10:34:05;;;;;;;1.52;1.42;;;16.50;63.20;;;;;;5115224;28;20169;-59
2024/02/18 10:36:31;;;;;;;1.75;1.30;;;16.50;63.20;;;;;;5115689;28;20177;-59
2024/02/18 10:38:58;;;;;;;5.32;1.90;;;16.50;63.20;;;;;;5114745;28;20173;-59
2024/02/18 10:41:32;;;;;;;2.53;1.35;;;16.50;63.20;;;;;;5113398;28;20538;-59
2024/02/18 10:43:57;;;;;;;1.40;1.30;;;16.50;63.20;;;;;;5115948;28;20259;-59
2024/02/18 10:46:24;;;;;;;1.70;1.45;;;16.50;63.20;;;;;;5114707;28;20726;-59
2024/02/18 10:48:54;;;;;;;3.00;1.60;;;16.50;63.20;;;;;;5115923;28;20192;-60
2024/02/18 10:51:34;;;;;;;1.77;1.40;;;16.50;63.20;;;;;;5115608;28;20175;-59
2024/02/18 10:54:12;;;;;;;2.78;1.52;;;16.50;63.20;;;;;;5113649;28;20189;-59
2024/02/18 10:56:40;;;;;;;1.60;1.20;;;16.50;63.20;;;;;;5113751;28;20220;-60
2024/02/18 10:59:35;;;;;;;1.77;1.52;;;16.50;63.20;;;;;;5115743;28;20667;-59
2024/02/18 11:02:49;;;;;;;3.17;1.50;;;16.50;64.00;;;;;;5113624;28;20192;-59
2024/02/18 11:05:15;;;;;;;3.35;1.60;;;16.50;63.20;;;;;;5109991;28;20647;-59
2024/02/18 11:07:40;;;;;;;1.85;1.50;;;16.50;63.10;;;;;;5112987;28;20185;-60
2024/02/18 11:10:06;;;;;;;3.30;1.65;;;16.50;63.20;;;;;;5114167;28;20187;-59
2024/02/18 11:12:33;;;;;;;1.73;1.25;;;16.50;63.10;;;;;;5096795;28;20574;-60
2024/02/18 11:14:59;;;;;;;2.10;1.30;;;16.50;63.20;;;;;;5113011;28;20178;-59
2024/02/18 11:17:25;;;;;;;2.28;1.30;;;16.40;63.90;;;;;;5114008;28;20181;-59
2024/02/18 11:19:50;;;;;;;4.20;1.30;;;16.50;63.10;;;;;;5113578;28;20679;-59
2024/02/18 11:22:16;;;;;;;1.80;1.30;;;16.40;63.10;;;;;;5112757;28;20175;-59
2024/02/18 11:24:42;;;;;;;2.55;1.08;;;16.40;63.10;;;;;;5114396;28;20173;-59
2024/02/18 11:27:09;;;;;;;3.47;1.77;;;16.50;63.10;;;;;;5115211;28;20177;-59
2024/02/18 11:29:47;;;;;;;2.67;1.60;;;16.50;63.10;;;;;;5114083;28;20518;-59
2024/02/18 11:32:13;;;;;;;1.90;1.35;;;16.50;63.40;;;;;;5115277;28;20613;-59
2024/02/18 11:34:39;;;;;;;4.65;1.85;;;16.40;63.20;;;;;;5112364;28;20599;-62
2024/02/18 11:37:30;;;;;;;1.95;1.40;;;16.50;63.70;;;;;;5114314;28;20683;-62
2024/02/18 11:39:59;;;;;;;2.78;1.60;;;16.50;64.40;;;;;;5114620;28;20736;-61
2024/02/18 11:42:28;;;;;;;2.60;1.60;;;16.60;64.50;;;;;;5114125;28;20643;-63
2024/02/18 11:45:20;;;;;;;5.85;1.88;;;16.60;64.00;;;;;;5095516;28;20265;-62
2024/02/18 11:47:50;;;;;;;6.03;1.95;;;16.60;64.80;;;;;;5114165;27;20272;-63
2024/02/18 11:50:17;;;;;;;4.82;1.90;;;16.70;65.20;;;;;;5114313;28;20177;-64
2024/02/18 11:52:43;;;;;;;3.03;1.42;;;16.70;66.00;;;;;;5114508;28;20173;-64
2024/02/18 11:55:22;;;;;;;1.90;1.40;;;16.70;65.60;;;;;;5114536;28;20596;-64
2024/02/18 11:57:47;;;;;;;5.80;1.83;;;16.70;65.80;;;;;;5114003;28;20192;-65
2024/02/18 12:00:14;;;;;;;1.67;1.40;;;16.70;65.50;;;;;;5114411;28;20227;-64
2024/02/18 12:02:41;;;;;;;3.15;1.70;;;16.70;65.70;;;;;;5114054;28;20181;-63
2024/02/18 12:05:10;;;;;;;3.83;1.52;;;16.70;65.90;;;;;;5113930;28;20180;-63
2024/02/18 12:07:37;;;;;;;3.38;1.70;;;16.70;65.60;;;;;;5113670;28;20177;-64
2024/02/18 12:10:03;;;;;;;3.78;1.67;;;16.70;65.60;;;;;;5113615;28;20644;-65
2024/02/18 12:12:28;;;;;;;2.78;1.40;;;16.70;65.70;;;;;;5113232;28;20173;-64
2024/02/18 12:14:55;;;;;;;3.33;1.70;;;16.70;66.00;;;;;;5114529;28;20169;-61
2024/02/18 12:17:23;;;;;;;5.68;1.73;;;16.70;65.90;;;;;;5113598;28;20181;-60
2024/02/18 12:19:52;;;;;;;6.05;1.90;;;16.70;65.80;;;;;;5113591;28;20197;-60
2024/02/18 12:22:22;;;;;;;3.72;1.60;;;16.60;65.70;;;;;;5113374;28;20180;-60
2024/02/18 12:24:48;;;;;;;3.92;1.80;;;16.60;65.50;;;;;;5113371;28;20211;-61
2024/02/18 12:27:14;;;;;;;4.68;1.60;;;16.60;65.30;;;;;;5114130;28;20588;-61
2024/02/18 12:29:40;;;;;;;5.93;1.50;;;16.60;65.40;;;;;;5114013;28;20636;-60
2024/02/18 12:32:06;;;;;;;2.55;1.40;;;16.50;65.30;;;;;;5113445;28;20243;-61
2024/02/18 12:34:32;;;;;;;4.25;1.60;;;16.50;65.30;;;;;;5112560;28;20173;-61
2024/02/18 12:36:57;;;;;;;2.83;1.60;;;16.50;65.30;;;;;;5114007;28;20249;-61
2024/02/18 12:39:23;;;;;;;4.18;1.83;;;16.50;65.30;;;;;;5111425;28;20204;-61
2024/02/18 12:41:48;;;;;;;4.60;1.83;;;16.50;65.30;;;;;;5111752;28;20177;-61
2024/02/18 12:44:14;;;;;;;1.85;1.50;;;16.50;65.20;;;;;;5111929;28;20175;-61